Time,TemperatureF,DewpointF,PressureIn,WindDirection,WindDirectionDegrees,WindSpeedMPH,WindSpeedGustMPH,Humidity,HourlyPrecipIn,Conditions,Clouds,dailyrainin,SoftwareType,DateUTC
2013-05-09 00:01:00,64.0,48.0,30.08,SSW,202,0.0,0.0,56,0.00,,,0.00,WUHU21623XXSP,2013-05-09 07:01:00,
2013-05-09 00:06:00,63.7,47.2,30.08,SW,225,0.0,0.0,55,0.00,,,0.00,WUHU21623XXSP,2013-05-09 07:06:00,
2013-05-09 00:11:00,64.0,47.5,30.08,South,180,0.0,0.0,55,0.00,,,0.00,WUHU21623XXSP,2013-05-09 07:11:00,
2013-05-09 00:16:00,64.6,47.6,30.08,SW,225,0.0,2.2,54,0.00,,,0.00,WUHU21623XXSP,2013-05-09 07:16:00,
2013-05-09 00:21:00,64.8,48.3,30.08,SW,225,0.0,2.2,55,0.00,,,0.00,WUHU21623XXSP,2013-05-09 07:21:00,
2013-05-09 00:26:00,64.9,47.8,30.08,SSW,202,0.0,0.0,54,0.00,,,0.00,WUHU21623XXSP,2013-05-09 07:26:00,
2013-05-09 00:31:00,65.1,48.0,30.08,SSW,202,1.6,1.6,54,0.00,,,0.00,WUHU21623XXSP,2013-05-09 07:31:00,
2013-05-09 00:36:00,65.1,48.0,30.08,SSW,202,0.0,1.6,54,0.00,,,0.00,WUHU21623XXSP,2013-05-09 07:36:00,
2013-05-09 00:41:00,64.9,47.3,30.08,SSW,202,0.0,0.0,53,0.00,,,0.00,WUHU21623XXSP,2013-05-09 07:41:00,
2013-05-09 00:46:00,64.9,47.8,30.09,SSW,202,0.0,0.0,54,0.00,,,0.00,WUHU21623XXSP,2013-05-09 07:46:00,
2013-05-09 00:51:00,64.6,47.6,30.09,SSW,202,0.0,0.0,54,0.00,,,0.00,WUHU21623XXSP,2013-05-09 07:51:00,
2013-05-09 00:56:00,64.0,47.0,30.09,SSW,202,0.0,0.0,54,0.00,,,0.00,WUHU21623XXSP,2013-05-09 07:56:00,
2013-05-09 01:01:00,63.5,47.0,30.09,SSW,202,0.0,0.0,55,0.00,,,0.00,WUHU21623XXSP,2013-05-09 08:01:00,
2013-05-09 01:06:00,63.5,47.0,30.09,SSW,202,0.0,0.0,55,0.00,,,0.00,WUHU21623XXSP,2013-05-09 08:06:00,
2013-05-09 01:11:00,62.4,46.5,30.08,SSW,202,0.0,0.0,56,0.00,,,0.00,WUHU21623XXSP,2013-05-09 08:11:00,
2013-05-09 01:16:00,61.7,45.8,30.08,SSW,202,0.0,0.0,56,0.00,,,0.00,WUHU21623XXSP,2013-05-09 08:16:00,
2013-05-09 01:21:00,61.3,46.0,30.09,SSW,202,0.0,0.0,57,0.00,,,0.00,WUHU21623XXSP,2013-05-09 08:21:00,
2013-05-09 01:26:00,60.6,45.8,30.08,SSW,202,0.0,0.0,58,0.00,,,0.00,WUHU21623XXSP,2013-05-09 08:26:00,
2013-05-09 01:31:00,59.5,45.2,30.09,SSW,202,0.0,0.0,59,0.00,,,0.00,WUHU21623XXSP,2013-05-09 08:31:00,
2013-05-09 01:36:00,59.0,45.2,30.08,SSW,202,0.0,0.0,60,0.00,,,0.00,WUHU21623XXSP,2013-05-09 08:36:00,
2013-05-09 01:41:00,58.8,45.4,30.08,SSW,202,0.0,0.0,61,0.00,,,0.00,WUHU21623XXSP,2013-05-09 08:41:00,
2013-05-09 01:46:00,58.3,45.4,30.08,SSW,202,0.0,0.0,62,0.00,,,0.00,WUHU21623XXSP,2013-05-09 08:46:00,
2013-05-09 01:51:00,57.9,45.0,30.08,SSW,202,0.0,0.0,62,0.00,,,0.00,WUHU21623XXSP,2013-05-09 08:51:00,
2013-05-09 01:56:00,57.7,44.8,30.08,SSW,202,0.0,0.0,62,0.00,,,0.00,WUHU21623XXSP,2013-05-09 08:56:00,
2013-05-09 02:01:00,57.4,45.0,30.09,SSW,202,0.0,0.0,63,0.00,,,0.00,WUHU21623XXSP,2013-05-09 09:01:00,
2013-05-09 02:06:00,57.0,45.0,30.08,SSW,202,0.0,0.0,64,0.00,,,0.00,WUHU21623XXSP,2013-05-09 09:06:00,
2013-05-09 02:11:00,57.0,46.6,30.08,SSW,202,0.0,0.0,68,0.00,,,0.00,WUHU21623XXSP,2013-05-09 09:11:00,
2013-05-09 02:16:00,56.5,45.7,30.09,SSW,202,0.0,0.0,67,0.00,,,0.00,WUHU21623XXSP,2013-05-09 09:16:00,
2013-05-09 02:21:00,56.1,45.7,30.09,SSW,202,0.0,0.0,68,0.00,,,0.00,WUHU21623XXSP,2013-05-09 09:21:00,
2013-05-09 02:26:00,55.9,46.3,30.09,SSW,202,0.0,0.0,70,0.00,,,0.00,WUHU21623XXSP,2013-05-09 09:26:00,
2013-05-09 02:31:00,55.6,46.0,30.09,SSW,202,0.0,0.0,70,0.00,,,0.00,WUHU21623XXSP,2013-05-09 09:31:00,
2013-05-09 02:36:00,55.6,45.6,30.09,SSW,202,0.0,0.0,69,0.00,,,0.00,WUHU21623XXSP,2013-05-09 09:36:00,
2013-05-09 02:41:00,55.8,45.4,30.09,SSW,202,0.0,0.0,68,0.00,,,0.00,WUHU21623XXSP,2013-05-09 09:41:00,
2013-05-09 02:46:00,56.3,45.5,30.09,SSW,202,0.0,0.0,67,0.00,,,0.00,WUHU21623XXSP,2013-05-09 09:46:00,
2013-05-09 02:51:00,56.8,45.6,30.09,West,270,0.0,0.0,66,0.00,,,0.00,WUHU21623XXSP,2013-05-09 09:51:00,
2013-05-09 02:56:00,56.8,45.6,30.09,West,270,0.0,0.0,66,0.00,,,0.00,WUHU21623XXSP,2013-05-09 09:56:00,
2013-05-09 03:01:00,57.0,45.8,30.09,WSW,247,0.0,0.0,66,0.00,,,0.00,WUHU21623XXSP,2013-05-09 10:01:00,
2013-05-09 03:06:00,57.4,46.2,30.09,WSW,247,2.5,2.5,66,0.00,,,0.00,WUHU21623XXSP,2013-05-09 10:06:00,
2013-05-09 03:11:00,57.4,46.2,30.09,WSW,247,1.3,2.5,66,0.00,,,0.00,WUHU21623XXSP,2013-05-09 10:11:00,
2013-05-09 03:16:00,56.5,45.3,30.09,West,270,1.1,1.3,66,0.00,,,0.00,WUHU21623XXSP,2013-05-09 10:16:00,
2013-05-09 03:21:00,56.1,45.3,30.09,WSW,247,2.0,2.0,67,0.00,,,0.00,WUHU21623XXSP,2013-05-09 10:21:00,
2013-05-09 03:26:00,55.9,45.2,30.09,WSW,247,0.0,2.0,67,0.00,,,0.00,WUHU21623XXSP,2013-05-09 10:26:00,
2013-05-09 03:31:00,55.8,45.1,30.09,WSW,247,0.0,0.0,67,0.00,,,0.00,WUHU21623XXSP,2013-05-09 10:31:00,
2013-05-09 03:36:00,55.8,45.1,30.10,WSW,247,0.0,0.0,67,0.00,,,0.00,WUHU21623XXSP,2013-05-09 10:36:00,
2013-05-09 03:41:00,56.1,45.3,30.10,WSW,247,0.0,0.0,67,0.00,,,0.00,WUHU21623XXSP,2013-05-09 10:41:00,
2013-05-09 03:46:00,56.1,44.9,30.10,WSW,247,0.0,0.0,66,0.00,,,0.00,WUHU21623XXSP,2013-05-09 10:46:00,
2013-05-09 03:51:00,55.6,44.9,30.10,WSW,247,0.0,0.0,67,0.00,,,0.00,WUHU21623XXSP,2013-05-09 10:51:00,
2013-05-09 03:56:00,54.9,44.6,30.10,WSW,247,0.0,0.0,68,0.00,,,0.00,WUHU21623XXSP,2013-05-09 10:56:00,
2013-05-09 04:01:00,54.1,44.2,30.10,WSW,247,0.0,0.0,69,0.00,,,0.00,WUHU21623XXSP,2013-05-09 11:01:00,
2013-05-09 04:06:00,53.8,44.3,30.09,WSW,247,0.0,0.0,70,0.00,,,0.00,WUHU21623XXSP,2013-05-09 11:06:00,
2013-05-09 04:11:00,53.4,43.9,30.10,WSW,247,0.0,0.0,70,0.00,,,0.00,WUHU21623XXSP,2013-05-09 11:11:00,
2013-05-09 04:16:00,52.9,43.8,30.10,WSW,247,0.0,0.0,71,0.00,,,0.00,WUHU21623XXSP,2013-05-09 11:16:00,
2013-05-09 04:21:00,52.9,43.8,30.10,WSW,247,0.0,0.0,71,0.00,,,0.00,WUHU21623XXSP,2013-05-09 11:21:00,
2013-05-09 04:26:00,52.7,43.6,30.10,WSW,247,0.0,0.0,71,0.00,,,0.00,WUHU21623XXSP,2013-05-09 11:26:00,
2013-05-09 04:31:00,52.3,43.6,30.10,WSW,247,0.0,0.0,72,0.00,,,0.00,WUHU21623XXSP,2013-05-09 11:31:00,
2013-05-09 04:36:00,52.0,43.3,30.11,WSW,247,0.0,0.0,72,0.00,,,0.00,WUHU21623XXSP,2013-05-09 11:36:00,
2013-05-09 04:41:00,51.4,43.1,30.11,WSW,247,0.0,0.0,73,0.00,,,0.00,WUHU21623XXSP,2013-05-09 11:41:00,
2013-05-09 04:46:00,50.7,42.7,30.11,WSW,247,0.0,0.0,74,0.00,,,0.00,WUHU21623XXSP,2013-05-09 11:46:00,
2013-05-09 04:51:00,50.4,43.1,30.11,WSW,247,0.0,0.0,76,0.00,,,0.00,WUHU21623XXSP,2013-05-09 11:51:00,
2013-05-09 04:56:00,50.2,42.9,30.11,WSW,247,0.0,0.0,76,0.00,,,0.00,WUHU21623XXSP,2013-05-09 11:56:00,
2013-05-09 05:01:00,49.8,42.5,30.11,WSW,247,0.0,0.0,76,0.00,,,0.00,WUHU21623XXSP,2013-05-09 12:01:00,
2013-05-09 05:06:00,49.8,43.2,30.11,WSW,247,0.0,0.0,78,0.00,,,0.00,WUHU21623XXSP,2013-05-09 12:06:00,
2013-05-09 05:11:00,50.0,43.4,30.11,WSW,247,0.0,0.0,78,0.00,,,0.00,WUHU21623XXSP,2013-05-09 12:11:00,
2013-05-09 05:16:00,50.0,43.7,30.11,WSW,247,0.0,0.0,79,0.00,,,0.00,WUHU21623XXSP,2013-05-09 12:16:00,
2013-05-09 05:21:00,50.4,44.4,30.11,NW,315,0.0,0.0,80,0.00,,,0.00,WUHU21623XXSP,2013-05-09 12:21:00,
2013-05-09 05:26:00,50.9,44.9,30.11,NW,315,0.0,0.0,80,0.00,,,0.00,WUHU21623XXSP,2013-05-09 12:26:00,
2013-05-09 05:31:00,52.2,46.2,30.11,NW,315,0.0,0.0,80,0.00,,,0.00,WUHU21623XXSP,2013-05-09 12:31:00,
2013-05-09 05:36:00,53.1,46.7,30.11,NW,315,0.0,0.0,79,0.00,,,0.00,WUHU21623XXSP,2013-05-09 12:36:00,
2013-05-09 05:41:00,54.0,47.3,30.12,NW,315,0.0,0.0,78,0.00,,,0.00,WUHU21623XXSP,2013-05-09 12:41:00,
2013-05-09 05:46:00,55.0,47.9,30.12,NW,315,0.0,0.0,77,0.00,,,0.00,WUHU21623XXSP,2013-05-09 12:46:00,
2013-05-09 05:51:00,55.9,48.8,30.12,NW,315,0.0,0.0,77,0.00,,,0.00,WUHU21623XXSP,2013-05-09 12:51:00,
2013-05-09 05:56:00,57.0,49.5,30.12,NW,315,0.0,0.0,76,0.00,,,0.00,WUHU21623XXSP,2013-05-09 12:56:00,
2013-05-09 06:01:00,58.6,50.7,30.13,NW,315,0.0,0.0,75,0.00,,,0.00,WUHU21623XXSP,2013-05-09 13:01:00,
2013-05-09 06:06:00,59.9,51.6,30.13,NW,315,0.0,0.0,74,0.00,,,0.00,WUHU21623XXSP,2013-05-09 13:06:00,
2013-05-09 06:11:00,61.3,52.6,30.13,NW,315,0.0,0.0,73,0.00,,,0.00,WUHU21623XXSP,2013-05-09 13:11:00,
2013-05-09 06:16:00,63.0,53.1,30.13,NW,315,0.0,0.0,70,0.00,,,0.00,WUHU21623XXSP,2013-05-09 13:16:00,
2013-05-09 06:21:00,62.4,52.6,30.13,ENE,67,0.0,0.0,70,0.00,,,0.00,WUHU21623XXSP,2013-05-09 13:21:00,
2013-05-09 06:26:00,62.2,52.0,30.13,ENE,67,0.0,0.0,69,0.00,,,0.00,WUHU21623XXSP,2013-05-09 13:26:00,
2013-05-09 06:31:00,62.6,52.0,30.14,East,90,0.0,0.0,68,0.00,,,0.00,WUHU21623XXSP,2013-05-09 13:31:00,
2013-05-09 06:36:00,63.1,52.0,30.14,ENE,67,4.5,4.5,67,0.00,,,0.00,WUHU21623XXSP,2013-05-09 13:36:00,
2013-05-09 06:41:00,63.9,53.2,30.14,ENE,67,0.0,4.5,68,0.00,,,0.00,WUHU21623XXSP,2013-05-09 13:41:00,
2013-05-09 06:46:00,66.2,54.6,30.14,ENE,67,0.0,0.0,66,0.00,,,0.00,WUHU21623XXSP,2013-05-09 13:46:00,
2013-05-09 06:51:00,68.4,55.4,30.14,ENE,67,0.0,0.0,63,0.00,,,0.00,WUHU21623XXSP,2013-05-09 13:51:00,
2013-05-09 06:56:00,68.7,54.8,30.14,ENE,67,0.0,0.0,61,0.00,,,0.00,WUHU21623XXSP,2013-05-09 13:56:00,
2013-05-09 07:01:00,68.9,55.0,30.14,ENE,67,0.0,0.0,61,0.00,,,0.00,WUHU21623XXSP,2013-05-09 14:01:00,
2013-05-09 07:06:00,69.6,55.6,30.15,ENE,67,0.0,0.0,61,0.00,,,0.00,WUHU21623XXSP,2013-05-09 14:06:00,
2013-05-09 07:11:00,71.2,56.7,30.15,ENE,67,0.0,0.0,60,0.00,,,0.00,WUHU21623XXSP,2013-05-09 14:11:00,
2013-05-09 07:16:00,73.2,57.6,30.15,ENE,67,0.0,0.0,58,0.00,,,0.00,WUHU21623XXSP,2013-05-09 14:16:00,
2013-05-09 07:21:00,74.1,57.5,30.15,ENE,67,0.0,0.0,56,0.00,,,0.00,WUHU21623XXSP,2013-05-09 14:21:00,
2013-05-09 07:26:00,75.7,59.0,30.15,ENE,67,0.0,0.0,56,0.00,,,0.00,WUHU21623XXSP,2013-05-09 14:26:00,
2013-05-09 07:31:00,77.9,59.4,30.15,ENE,67,0.0,0.0,53,0.00,,,0.00,WUHU21623XXSP,2013-05-09 14:31:00,
2013-05-09 07:36:00,78.4,59.3,30.15,ENE,67,0.0,0.0,52,0.00,,,0.00,WUHU21623XXSP,2013-05-09 14:36:00,
2013-05-09 07:41:00,78.1,59.1,30.15,ENE,67,0.0,0.0,52,0.00,,,0.00,WUHU21623XXSP,2013-05-09 14:41:00,
2013-05-09 07:46:00,77.9,58.9,30.15,NE,45,0.4,0.4,52,0.00,,,0.00,WUHU21623XXSP,2013-05-09 14:46:00,
2013-05-09 07:51:00,77.5,58.5,30.16,NE,45,0.0,0.4,52,0.00,,,0.00,WUHU21623XXSP,2013-05-09 14:51:00,
2013-05-09 07:56:00,76.6,57.7,30.15,ENE,67,0.0,0.0,52,0.00,,,0.00,WUHU21623XXSP,2013-05-09 14:56:00,
2013-05-09 08:01:00,78.1,58.5,30.16,ENE,67,0.0,0.0,51,0.00,,,0.00,WUHU21623XXSP,2013-05-09 15:01:00,
2013-05-09 08:06:00,78.6,59.0,30.15,ENE,67,0.0,0.0,51,0.00,,,0.00,WUHU21623XXSP,2013-05-09 15:06:00,
2013-05-09 08:11:00,77.7,58.7,30.16,NNE,22,0.0,0.0,52,0.00,,,0.00,WUHU21623XXSP,2013-05-09 15:11:00,
2013-05-09 08:16:00,77.4,58.4,30.16,NE,45,0.0,0.0,52,0.00,,,0.00,WUHU21623XXSP,2013-05-09 15:16:00,
2013-05-09 08:21:00,75.7,57.4,30.16,ENE,67,0.0,0.0,53,0.00,,,0.00,WUHU21623XXSP,2013-05-09 15:21:00,
2013-05-09 08:26:00,74.8,57.1,30.16,ENE,67,0.0,0.0,54,0.00,,,0.00,WUHU21623XXSP,2013-05-09 15:26:00,
2013-05-09 08:31:00,74.5,56.3,30.16,East,90,0.0,0.0,53,0.00,,,0.00,WUHU21623XXSP,2013-05-09 15:31:00,
2013-05-09 08:36:00,73.4,56.3,30.16,ENE,67,0.0,0.0,55,0.00,,,0.00,WUHU21623XXSP,2013-05-09 15:36:00,
2013-05-09 08:41:00,75.0,57.3,30.16,ENE,67,4.9,4.9,54,0.00,,,0.00,WUHU21623XXSP,2013-05-09 15:41:00,
2013-05-09 08:46:00,75.6,57.3,30.16,NE,45,0.0,4.9,53,0.00,,,0.00,WUHU21623XXSP,2013-05-09 15:46:00,
2013-05-09 08:51:00,75.4,57.1,30.16,ENE,67,0.0,0.0,53,0.00,,,0.00,WUHU21623XXSP,2013-05-09 15:51:00,
2013-05-09 08:52:00,75.7,57.4,30.16,NNE,22,0.0,0.0,53,0.00,,,0.00,WUHU21623XXSP,2013-05-09 15:52:00,
2013-05-09 08:56:00,76.8,57.9,30.16,NE,45,0.0,0.0,52,0.00,,,0.00,WUHU21623XXSP,2013-05-09 15:56:00,
2013-05-09 09:00:00,77.5,57.9,30.17,NNE,22,6.3,6.3,51,0.00,,,0.00,WUHU21623XXSP,2013-05-09 16:00:00,
2013-05-09 09:07:00,77.5,57.9,30.16,NE,45,0.0,6.3,51,0.00,,,0.00,WUHU21623XXSP,2013-05-09 16:07:00,
2013-05-09 09:22:00,77.5,58.5,30.16,NNE,22,5.8,5.8,52,0.00,,,0.00,WUHU21623XXSP,2013-05-09 16:22:00,
2013-05-09 09:27:00,77.5,57.9,30.17,NNE,22,0.0,5.8,51,0.00,,,0.00,WUHU21623XXSP,2013-05-09 16:27:00,
2013-05-09 09:32:00,78.1,58.5,30.17,North,0,0.0,6.7,51,0.00,,,0.00,WUHU21623XXSP,2013-05-09 16:32:00,
2013-05-09 09:37:00,77.2,57.7,30.17,ENE,67,0.2,6.7,51,0.00,,,0.00,WUHU21623XXSP,2013-05-09 16:37:00,
2013-05-09 09:42:00,75.9,56.5,30.16,East,90,0.0,1.3,51,0.00,,,0.00,WUHU21623XXSP,2013-05-09 16:42:00,
2013-05-09 09:47:00,76.1,57.8,30.17,East,90,0.0,0.2,53,0.00,,,0.00,WUHU21623XXSP,2013-05-09 16:47:00,
2013-05-09 09:52:00,77.7,58.7,30.16,NE,45,0.0,0.0,52,0.00,,,0.00,WUHU21623XXSP,2013-05-09 16:52:00,
2013-05-09 09:57:00,78.1,58.5,30.16,NE,45,0.0,5.4,51,0.00,,,0.00,WUHU21623XXSP,2013-05-09 16:57:00,
2013-05-09 10:02:00,78.4,58.8,30.16,NE,45,3.1,5.4,51,0.00,,,0.00,WUHU21623XXSP,2013-05-09 17:02:00,
2013-05-09 10:07:00,79.0,59.3,30.16,NNE,22,0.0,3.1,51,0.00,,,0.00,WUHU21623XXSP,2013-05-09 17:07:00,
2013-05-09 10:12:00,78.1,57.4,30.16,ENE,67,0.0,0.0,49,0.00,,,0.00,WUHU21623XXSP,2013-05-09 17:12:00,
2013-05-09 10:17:00,77.4,57.3,30.16,ENE,67,0.0,0.0,50,0.00,,,0.00,WUHU21623XXSP,2013-05-09 17:17:00,
2013-05-09 10:22:00,76.8,57.9,30.16,NE,45,0.0,0.7,52,0.00,,,0.00,WUHU21623XXSP,2013-05-09 17:22:00,
2013-05-09 10:27:00,77.9,58.3,30.16,ENE,67,0.0,0.7,51,0.00,,,0.00,WUHU21623XXSP,2013-05-09 17:27:00,
2013-05-09 10:32:00,77.7,57.6,30.17,NE,45,0.0,0.0,50,0.00,,,0.00,WUHU21623XXSP,2013-05-09 17:32:00,
2013-05-09 10:37:00,78.6,58.4,30.16,East,90,0.0,0.0,50,0.00,,,0.00,WUHU21623XXSP,2013-05-09 17:37:00,
2013-05-09 10:42:00,77.9,57.7,30.17,ESE,112,1.6,1.6,50,0.00,,,0.00,WUHU21623XXSP,2013-05-09 17:42:00,
2013-05-09 10:47:00,78.1,58.5,30.16,SE,135,0.0,1.6,51,0.00,,,0.00,WUHU21623XXSP,2013-05-09 17:47:00,
2013-05-09 10:52:00,78.4,57.6,30.16,ESE,112,0.0,0.0,49,0.00,,,0.00,WUHU21623XXSP,2013-05-09 17:52:00,
2013-05-09 10:57:00,79.0,58.2,30.17,ESE,112,0.0,0.0,49,0.00,,,0.00,WUHU21623XXSP,2013-05-09 17:57:00,
2013-05-09 11:02:00,80.2,59.3,30.17,ESE,112,0.0,0.0,49,0.00,,,0.00,WUHU21623XXSP,2013-05-09 18:02:00,
2013-05-09 11:07:00,81.5,59.9,30.17,NE,45,0.0,0.0,48,0.00,,,0.00,WUHU21623XXSP,2013-05-09 18:07:00,
2013-05-09 11:12:00,81.7,59.5,30.17,NE,45,2.7,2.7,47,0.00,,,0.00,WUHU21623XXSP,2013-05-09 18:12:00,
2013-05-09 11:17:00,81.3,59.7,30.17,NNE,22,0.0,2.7,48,0.00,,,0.00,WUHU21623XXSP,2013-05-09 18:17:00,
2013-05-09 11:22:00,81.1,59.5,30.17,SE,135,0.0,1.3,48,0.00,,,0.00,WUHU21623XXSP,2013-05-09 18:22:00,
2013-05-09 11:27:00,81.0,58.2,30.17,ESE,112,0.0,2.5,46,0.00,,,0.00,WUHU21623XXSP,2013-05-09 18:27:00,
2013-05-09 11:28:00,81.1,58.9,30.17,ESE,112,0.0,2.5,47,0.00,,,0.00,WUHU21623XXSP,2013-05-09 18:28:00,
2013-05-09 11:32:00,81.3,59.7,30.17,East,90,0.0,2.5,48,0.00,,,0.00,WUHU21623XXSP,2013-05-09 18:32:00,
2013-05-09 11:37:00,81.3,58.5,30.16,NE,45,0.0,3.6,46,0.00,,,0.00,WUHU21623XXSP,2013-05-09 18:37:00,
2013-05-09 11:42:00,80.4,57.0,30.16,ESE,112,0.0,4.5,45,0.00,,,0.00,WUHU21623XXSP,2013-05-09 18:42:00,
2013-05-09 11:47:00,80.4,58.9,30.17,NNE,22,0.0,4.5,48,0.00,,,0.00,WUHU21623XXSP,2013-05-09 18:47:00,
2013-05-09 11:52:00,81.3,58.5,30.16,NNE,22,0.0,0.0,46,0.00,,,0.00,WUHU21623XXSP,2013-05-09 18:52:00,
2013-05-09 11:57:00,82.0,58.5,30.16,NNE,22,0.0,0.0,45,0.00,,,0.00,WUHU21623XXSP,2013-05-09 18:57:00,
2013-05-09 12:02:00,83.8,60.1,30.16,NNE,22,0.0,0.0,45,0.00,,,0.00,WUHU21623XXSP,2013-05-09 19:02:00,
2013-05-09 12:07:00,84.7,59.6,30.16,NNE,22,0.0,0.0,43,0.00,,,0.00,WUHU21623XXSP,2013-05-09 19:07:00,
2013-05-09 12:12:00,84.6,58.8,30.16,NE,45,0.0,0.0,42,0.00,,,0.00,WUHU21623XXSP,2013-05-09 19:12:00,
2013-05-09 12:17:00,83.5,57.8,30.16,NE,45,0.9,0.9,42,0.00,,,0.00,WUHU21623XXSP,2013-05-09 19:17:00,
2013-05-09 12:22:00,82.9,57.3,30.16,NE,45,4.3,4.9,42,0.00,,,0.00,WUHU21623XXSP,2013-05-09 19:22:00,
2013-05-09 12:27:00,82.2,56.7,30.16,ENE,67,0.0,4.9,42,0.00,,,0.00,WUHU21623XXSP,2013-05-09 19:27:00,
2013-05-09 12:32:00,82.2,56.7,30.16,NE,45,0.0,0.0,42,0.00,,,0.00,WUHU21623XXSP,2013-05-09 19:32:00,
2013-05-09 12:37:00,81.9,55.7,30.16,NE,45,0.0,0.0,41,0.00,,,0.00,WUHU21623XXSP,2013-05-09 19:37:00,
2013-05-09 12:42:00,82.0,55.8,30.16,NNE,22,0.0,0.0,41,0.00,,,0.00,WUHU21623XXSP,2013-05-09 19:42:00,
2013-05-09 12:47:00,81.3,55.2,30.16,North,0,0.0,6.0,41,0.00,,,0.00,WUHU21623XXSP,2013-05-09 19:47:00,
2013-05-09 12:52:00,81.0,55.6,30.16,North,0,0.0,6.0,42,0.00,,,0.00,WUHU21623XXSP,2013-05-09 19:52:00,
2013-05-09 12:57:00,81.1,54.3,30.16,NNW,337,0.0,0.0,40,0.00,,,0.00,WUHU21623XXSP,2013-05-09 19:57:00,
2013-05-09 13:02:00,81.1,55.0,30.16,NNE,22,0.0,0.0,41,0.00,,,0.00,WUHU21623XXSP,2013-05-09 20:02:00,
2013-05-09 13:07:00,81.0,52.8,30.16,NE,45,4.9,7.4,38,0.00,,,0.00,WUHU21623XXSP,2013-05-09 20:07:00,
2013-05-09 13:12:00,80.8,54.0,30.16,NNE,22,2.9,7.4,40,0.00,,,0.00,WUHU21623XXSP,2013-05-09 20:12:00,
2013-05-09 13:17:00,81.0,53.5,30.16,NE,45,0.0,6.5,39,0.00,,,0.00,WUHU21623XXSP,2013-05-09 20:17:00,
2013-05-09 13:22:00,81.1,52.8,30.16,SE,135,0.0,0.0,38,0.00,,,0.00,WUHU21623XXSP,2013-05-09 20:22:00,
2013-05-09 13:27:00,81.7,54.1,30.16,SE,135,0.0,0.0,39,0.00,,,0.00,WUHU21623XXSP,2013-05-09 20:27:00,
2013-05-09 13:32:00,82.8,55.1,30.15,NE,45,0.0,0.0,39,0.00,,,0.00,WUHU21623XXSP,2013-05-09 20:32:00,
2013-05-09 13:37:00,82.8,54.4,30.15,NE,45,0.0,0.0,38,0.00,,,0.00,WUHU21623XXSP,2013-05-09 20:37:00,
2013-05-09 13:42:00,82.8,53.6,30.15,NE,45,0.0,0.0,37,0.00,,,0.00,WUHU21623XXSP,2013-05-09 20:42:00,
2013-05-09 13:47:00,82.6,54.9,30.15,North,0,0.0,2.9,39,0.00,,,0.00,WUHU21623XXSP,2013-05-09 20:47:00,
2013-05-09 13:52:00,82.6,54.9,30.15,NNW,337,0.0,2.9,39,0.00,,,0.00,WUHU21623XXSP,2013-05-09 20:52:00,
2013-05-09 13:57:00,82.6,54.9,30.15,NNW,337,0.0,0.0,39,0.00,,,0.00,WUHU21623XXSP,2013-05-09 20:57:00,
2013-05-09 14:02:00,82.6,54.2,30.15,NE,45,5.6,5.6,38,0.00,,,0.00,WUHU21623XXSP,2013-05-09 21:02:00,
2013-05-09 14:07:00,82.2,53.8,30.15,East,90,0.0,5.6,38,0.00,,,0.00,WUHU21623XXSP,2013-05-09 21:07:00,
2013-05-09 14:12:00,82.0,53.6,30.15,ESE,112,0.0,3.4,38,0.00,,,0.00,WUHU21623XXSP,2013-05-09 21:12:00,
2013-05-09 14:17:00,82.9,54.4,30.15,East,90,5.1,5.1,38,0.00,,,0.00,WUHU21623XXSP,2013-05-09 21:17:00,
2013-05-09 14:22:00,82.2,53.8,30.15,ESE,112,0.0,5.1,38,0.00,,,0.00,WUHU21623XXSP,2013-05-09 21:22:00,
2013-05-09 14:27:00,82.6,54.2,30.15,NE,45,0.0,0.0,38,0.00,,,0.00,WUHU21623XXSP,2013-05-09 21:27:00,
2013-05-09 14:32:00,82.9,53.7,30.15,West,270,0.0,0.0,37,0.00,,,0.00,WUHU21623XXSP,2013-05-09 21:32:00,
2013-05-09 14:37:00,83.3,54.8,30.15,SSE,157,0.0,0.0,38,0.00,,,0.00,WUHU21623XXSP,2013-05-09 21:37:00,
2013-05-09 14:42:00,84.6,56.0,30.14,WSW,247,0.0,0.0,38,0.00,,,0.00,WUHU21623XXSP,2013-05-09 21:42:00,
2013-05-09 14:47:00,85.1,54.9,30.14,WSW,247,0.0,0.0,36,0.00,,,0.00,WUHU21623XXSP,2013-05-09 21:47:00,
2013-05-09 14:52:00,84.6,54.4,30.14,WSW,247,0.0,0.0,36,0.00,,,0.00,WUHU21623XXSP,2013-05-09 21:52:00,
2013-05-09 14:57:00,84.6,56.0,30.14,WSW,247,0.0,0.0,38,0.00,,,0.00,WUHU21623XXSP,2013-05-09 21:57:00,
2013-05-09 15:02:00,84.4,55.0,30.14,WSW,247,0.0,0.0,37,0.00,,,0.00,WUHU21623XXSP,2013-05-09 22:02:00,
2013-05-09 15:07:00,84.0,54.7,30.14,WSW,247,0.0,0.0,37,0.00,,,0.00,WUHU21623XXSP,2013-05-09 22:07:00,
2013-05-09 15:12:00,84.4,55.8,30.13,WSW,247,0.0,0.0,38,0.00,,,0.00,WUHU21623XXSP,2013-05-09 22:12:00,
2013-05-09 15:17:00,84.7,55.3,30.13,WSW,247,0.0,0.0,37,0.00,,,0.00,WUHU21623XXSP,2013-05-09 22:17:00,
2013-05-09 15:22:00,84.7,54.5,30.13,WSW,247,0.0,0.0,36,0.00,,,0.00,WUHU21623XXSP,2013-05-09 22:22:00,
2013-05-09 15:27:00,84.6,54.4,30.13,WSW,247,0.0,0.0,36,0.00,,,0.00,WUHU21623XXSP,2013-05-09 22:27:00,
2013-05-09 15:32:00,85.3,55.1,30.13,WSW,247,2.0,2.0,36,0.00,,,0.00,WUHU21623XXSP,2013-05-09 22:32:00,
2013-05-09 15:38:00,85.8,55.5,30.13,WSW,247,0.0,2.0,36,0.00,,,0.00,WUHU21623XXSP,2013-05-09 22:38:00,
2013-05-09 15:42:00,86.2,54.3,30.13,WSW,247,0.0,0.0,34,0.00,,,0.00,WUHU21623XXSP,2013-05-09 22:42:00,
2013-05-09 15:47:00,85.6,53.7,30.12,WSW,247,0.0,0.0,34,0.00,,,0.00,WUHU21623XXSP,2013-05-09 22:47:00,
2013-05-09 15:53:00,85.3,53.5,30.12,WSW,247,0.0,0.0,34,0.00,,,0.00,WUHU21623XXSP,2013-05-09 22:53:00,
2013-05-09 15:58:00,85.1,54.9,30.12,WSW,247,0.0,0.0,36,0.00,,,0.00,WUHU21623XXSP,2013-05-09 22:58:00,
2013-05-09 16:03:00,84.6,52.9,30.12,WSW,247,0.0,1.6,34,0.00,,,0.00,WUHU21623XXSP,2013-05-09 23:03:00,
2013-05-09 16:08:00,84.9,54.7,30.12,WSW,247,0.0,1.6,36,0.00,,,0.00,WUHU21623XXSP,2013-05-09 23:08:00,
2013-05-09 16:13:00,86.0,55.7,30.12,WSW,247,0.0,0.0,36,0.00,,,0.00,WUHU21623XXSP,2013-05-09 23:13:00,
2013-05-09 16:18:00,86.5,54.5,30.12,WSW,247,0.0,0.7,34,0.00,,,0.00,WUHU21623XXSP,2013-05-09 23:18:00,
2013-05-09 16:23:00,86.7,54.7,30.12,WSW,247,0.0,0.7,34,0.00,,,0.00,WUHU21623XXSP,2013-05-09 23:23:00,
2013-05-09 16:28:00,85.8,55.5,30.12,WSW,247,0.0,0.0,36,0.00,,,0.00,WUHU21623XXSP,2013-05-09 23:28:00,
2013-05-09 16:33:00,86.2,55.9,30.12,WSW,247,0.0,0.0,36,0.00,,,0.00,WUHU21623XXSP,2013-05-09 23:33:00,
2013-05-09 16:38:00,86.4,55.2,30.12,WSW,247,0.0,0.0,35,0.00,,,0.00,WUHU21623XXSP,2013-05-09 23:38:00,
2013-05-09 16:43:00,87.1,55.9,30.12,SSE,157,0.0,0.0,35,0.00,,,0.00,WUHU21623XXSP,2013-05-09 23:43:00,
2013-05-09 16:48:00,87.3,55.2,30.11,SSE,157,0.0,0.0,34,0.00,,,0.00,WUHU21623XXSP,2013-05-09 23:48:00,
2013-05-09 16:51:00,86.9,54.9,30.11,SW,225,0.0,0.0,34,0.00,,,0.00,WUHU21623XXSP,2013-05-09 23:51:00,
2013-05-09 16:55:00,86.5,55.3,30.11,SW,225,8.1,8.1,35,0.00,,,0.00,WUHU21623XXSP,2013-05-09 23:55:00,
2013-05-09 17:02:00,86.4,56.0,30.11,SSE,157,0.0,8.1,36,0.00,,,0.00,WUHU21623XXSP,2013-05-10 00:02:00,
2013-05-09 17:08:00,86.5,54.5,30.11,WSW,247,0.0,5.6,34,0.00,,,0.00,WUHU21623XXSP,2013-05-10 00:08:00,
2013-05-09 17:12:00,85.8,55.5,30.11,WSW,247,1.8,1.8,36,0.00,,,0.00,WUHU21623XXSP,2013-05-10 00:12:00,
2013-05-09 17:22:00,85.3,53.5,30.11,WSW,247,0.0,1.8,34,0.00,,,0.00,WUHU21623XXSP,2013-05-10 00:22:00,
2013-05-09 17:27:00,86.2,55.9,30.11,WSW,247,0.0,2.2,36,0.00,,,0.00,WUHU21623XXSP,2013-05-10 00:27:00,
2013-05-09 17:32:00,86.7,56.3,30.10,WSW,247,0.0,2.2,36,0.00,,,0.00,WUHU21623XXSP,2013-05-10 00:32:00,
2013-05-09 17:37:00,88.0,56.7,30.10,WSW,247,0.0,0.0,35,0.00,,,0.00,WUHU21623XXSP,2013-05-10 00:37:00,
2013-05-09 17:42:00,88.5,57.1,30.10,WSW,247,1.3,1.3,35,0.00,,,0.00,WUHU21623XXSP,2013-05-10 00:42:00,
2013-05-09 17:47:00,89.4,57.9,30.10,WSW,247,0.0,1.3,35,0.00,,,0.00,WUHU21623XXSP,2013-05-10 00:47:00,
2013-05-09 17:52:00,90.5,58.9,30.10,WSW,247,0.0,0.0,35,0.00,,,0.00,WUHU21623XXSP,2013-05-10 00:52:00,
2013-05-09 17:57:00,92.5,59.0,30.09,WSW,247,0.0,0.0,33,0.00,,,0.00,WUHU21623XXSP,2013-05-10 00:57:00,
2013-05-09 18:02:00,93.0,60.2,30.10,WSW,247,0.0,0.0,34,0.00,,,0.00,WUHU21623XXSP,2013-05-10 01:02:00,
2013-05-09 18:07:00,93.7,60.9,30.10,WSW,247,0.0,0.0,34,0.00,,,0.00,WUHU21623XXSP,2013-05-10 01:07:00,
2013-05-09 18:12:00,94.1,61.2,30.10,WSW,247,0.0,0.0,34,0.00,,,0.00,WUHU21623XXSP,2013-05-10 01:12:00,
2013-05-09 18:17:00,94.1,61.2,30.10,WSW,247,0.0,0.0,34,0.00,,,0.00,WUHU21623XXSP,2013-05-10 01:17:00,
2013-05-09 18:23:00,93.7,59.1,30.10,WSW,247,0.0,0.0,32,0.00,,,0.00,WUHU21623XXSP,2013-05-10 01:23:00,
2013-05-09 18:28:00,91.8,58.3,30.10,WSW,247,0.0,0.0,33,0.00,,,0.00,WUHU21623XXSP,2013-05-10 01:28:00,
2013-05-09 18:33:00,91.2,59.5,30.10,WSW,247,0.0,0.0,35,0.00,,,0.00,WUHU21623XXSP,2013-05-10 01:33:00,
2013-05-09 18:37:00,92.3,60.5,30.09,WSW,247,0.0,0.0,35,0.00,,,0.00,WUHU21623XXSP,2013-05-10 01:37:00,
2013-05-09 18:43:00,90.1,59.3,30.09,WSW,247,0.0,0.0,36,0.00,,,0.00,WUHU21623XXSP,2013-05-10 01:43:00,
2013-05-09 18:48:00,89.8,59.8,30.09,WSW,247,0.0,0.0,37,0.00,,,0.00,WUHU21623XXSP,2013-05-10 01:48:00,
2013-05-09 18:53:00,89.4,59.5,30.10,WSW,247,0.0,0.0,37,0.00,,,0.00,WUHU21623XXSP,2013-05-10 01:53:00,
2013-05-09 18:58:00,90.0,59.2,30.09,WSW,247,0.0,0.0,36,0.00,,,0.00,WUHU21623XXSP,2013-05-10 01:58:00,
2013-05-09 19:03:00,89.8,59.0,30.09,WSW,247,0.0,0.0,36,0.00,,,0.00,WUHU21623XXSP,2013-05-10 02:03:00,
2013-05-09 19:08:00,89.2,58.5,30.09,WSW,247,0.0,0.0,36,0.00,,,0.00,WUHU21623XXSP,2013-05-10 02:08:00,
2013-05-09 19:13:00,88.3,56.9,30.10,WSW,247,0.0,0.0,35,0.00,,,0.00,WUHU21623XXSP,2013-05-10 02:13:00,
2013-05-09 19:18:00,88.0,57.5,30.10,WSW,247,0.0,0.0,36,0.00,,,0.00,WUHU21623XXSP,2013-05-10 02:18:00,
2013-05-09 19:23:00,87.4,56.9,30.10,WSW,247,0.0,0.0,36,0.00,,,0.00,WUHU21623XXSP,2013-05-10 02:23:00,
2013-05-09 19:28:00,86.4,56.0,30.09,WSW,247,0.0,0.0,36,0.00,,,0.00,WUHU21623XXSP,2013-05-10 02:28:00,
2013-05-09 19:33:00,85.6,56.1,30.09,WSW,247,0.0,0.0,37,0.00,,,0.00,WUHU21623XXSP,2013-05-10 02:33:00,
2013-05-09 19:38:00,84.9,56.2,30.10,SW,225,0.0,0.0,38,0.00,,,0.00,WUHU21623XXSP,2013-05-10 02:38:00,
2013-05-09 19:43:00,83.5,55.0,30.10,SW,225,0.0,0.0,38,0.00,,,0.00,WUHU21623XXSP,2013-05-10 02:43:00,
2013-05-09 19:48:00,82.2,54.6,30.10,SW,225,0.0,0.0,39,0.00,,,0.00,WUHU21623XXSP,2013-05-10 02:48:00,
2013-05-09 19:53:00,81.1,54.3,30.10,SW,225,0.0,0.0,40,0.00,,,0.00,WUHU21623XXSP,2013-05-10 02:53:00,
2013-05-09 19:58:00,79.3,53.4,30.10,SW,225,0.0,0.0,41,0.00,,,0.00,WUHU21623XXSP,2013-05-10 02:58:00,
2013-05-09 20:03:00,78.1,53.0,30.10,SW,225,0.0,0.0,42,0.00,,,0.00,WUHU21623XXSP,2013-05-10 03:03:00,
2013-05-09 20:08:00,77.0,52.6,30.10,SW,225,0.0,0.0,43,0.00,,,0.00,WUHU21623XXSP,2013-05-10 03:08:00,
2013-05-09 20:13:00,75.0,51.5,30.10,SW,225,0.0,0.0,44,0.00,,,0.00,WUHU21623XXSP,2013-05-10 03:13:00,
2013-05-09 20:18:00,73.9,51.1,30.11,SW,225,0.0,0.0,45,0.00,,,0.00,WUHU21623XXSP,2013-05-10 03:18:00,
2013-05-09 20:23:00,72.7,50.6,30.10,SW,225,0.0,0.0,46,0.00,,,0.00,WUHU21623XXSP,2013-05-10 03:23:00,
2013-05-09 20:28:00,71.2,49.8,30.11,SW,225,0.0,0.0,47,0.00,,,0.00,WUHU21623XXSP,2013-05-10 03:28:00,
2013-05-09 20:33:00,70.5,49.2,30.11,SW,225,0.0,0.0,47,0.00,,,0.00,WUHU21623XXSP,2013-05-10 03:33:00,
2013-05-09 20:38:00,69.6,48.9,30.11,SW,225,0.0,0.0,48,0.00,,,0.00,WUHU21623XXSP,2013-05-10 03:38:00,
2013-05-09 20:43:00,68.7,48.7,30.11,SW,225,0.0,0.0,49,0.00,,,0.00,WUHU21623XXSP,2013-05-10 03:43:00,
2013-05-09 20:48:00,68.2,48.8,30.11,SW,225,0.0,0.0,50,0.00,,,0.00,WUHU21623XXSP,2013-05-10 03:48:00,
2013-05-09 20:53:00,67.8,48.4,30.12,SW,225,0.0,0.0,50,0.00,,,0.00,WUHU21623XXSP,2013-05-10 03:53:00,
2013-05-09 20:58:00,67.3,49.0,30.11,SW,225,0.0,0.0,52,0.00,,,0.00,WUHU21623XXSP,2013-05-10 03:58:00,
2013-05-09 21:01:00,67.1,48.9,30.12,SW,225,0.0,0.0,52,0.00,,,0.00,WUHU21623XXSP,2013-05-10 04:01:00,
2013-05-09 21:06:00,66.7,48.5,30.12,SW,225,0.0,0.0,52,0.00,,,0.00,WUHU21623XXSP,2013-05-10 04:06:00,
2013-05-09 21:11:00,66.4,48.2,30.12,SW,225,0.0,0.0,52,0.00,,,0.00,WUHU21623XXSP,2013-05-10 04:11:00,
2013-05-09 21:16:00,66.0,47.8,30.12,SW,225,0.0,0.0,52,0.00,,,0.00,WUHU21623XXSP,2013-05-10 04:16:00,
2013-05-09 21:21:00,65.5,48.4,30.12,SW,225,0.0,0.0,54,0.00,,,0.00,WUHU21623XXSP,2013-05-10 04:21:00,
2013-05-09 21:26:00,65.1,47.5,30.12,SW,225,0.0,0.0,53,0.00,,,0.00,WUHU21623XXSP,2013-05-10 04:26:00,
2013-05-09 21:31:00,64.8,47.8,30.12,SSW,202,0.0,0.0,54,0.00,,,0.00,WUHU21623XXSP,2013-05-10 04:31:00,
2013-05-09 21:36:00,64.4,47.4,30.12,SSW,202,0.0,0.0,54,0.00,,,0.00,WUHU21623XXSP,2013-05-10 04:36:00,
2013-05-09 21:41:00,64.2,47.7,30.12,SSW,202,2.2,2.2,55,0.00,,,0.00,WUHU21623XXSP,2013-05-10 04:41:00,
2013-05-09 21:46:00,64.2,47.7,30.12,SSW,202,0.0,2.2,55,0.00,,,0.00,WUHU21623XXSP,2013-05-10 04:46:00,
2013-05-09 21:51:00,64.2,47.2,30.12,SSW,202,1.1,1.1,54,0.00,,,0.00,WUHU21623XXSP,2013-05-10 04:51:00,
2013-05-09 21:56:00,64.6,47.6,30.12,SSW,202,2.0,2.0,54,0.00,,,0.00,WUHU21623XXSP,2013-05-10 04:56:00,
2013-05-09 22:01:00,64.6,48.1,30.12,SSW,202,0.0,2.0,55,0.00,,,0.00,WUHU21623XXSP,2013-05-10 05:01:00,
2013-05-09 22:06:00,64.8,48.3,30.12,SSW,202,0.0,0.9,55,0.00,,,0.00,WUHU21623XXSP,2013-05-10 05:06:00,
2013-05-09 22:11:00,64.9,47.8,30.13,SSW,202,0.0,0.9,54,0.00,,,0.00,WUHU21623XXSP,2013-05-10 05:11:00,
2013-05-09 22:16:00,65.1,47.5,30.12,SSW,202,0.0,0.0,53,0.00,,,0.00,WUHU21623XXSP,2013-05-10 05:16:00,
2013-05-09 22:21:00,65.7,47.6,30.13,SSW,202,0.0,0.0,52,0.00,,,0.00,WUHU21623XXSP,2013-05-10 05:21:00,
2013-05-09 22:26:00,66.0,47.3,30.12,SSW,202,0.0,0.0,51,0.00,,,0.00,WUHU21623XXSP,2013-05-10 05:26:00,
2013-05-09 22:31:00,66.6,47.3,30.13,SSW,202,0.0,0.0,50,0.00,,,0.00,WUHU21623XXSP,2013-05-10 05:31:00,
2013-05-09 22:36:00,66.6,47.3,30.13,SSW,202,0.0,0.0,50,0.00,,,0.00,WUHU21623XXSP,2013-05-10 05:36:00,
2013-05-09 22:41:00,66.6,46.8,30.12,SW,225,0.0,0.0,49,0.00,,,0.00,WUHU21623XXSP,2013-05-10 05:41:00,
2013-05-09 22:46:00,66.9,46.5,30.12,SW,225,0.0,0.0,48,0.00,,,0.00,WUHU21623XXSP,2013-05-10 05:46:00,
2013-05-09 22:51:00,67.3,46.8,30.13,SW,225,0.0,0.0,48,0.00,,,0.00,WUHU21623XXSP,2013-05-10 05:51:00,
2013-05-09 22:56:00,67.3,46.8,30.12,SSW,202,0.0,0.0,48,0.00,,,0.00,WUHU21623XXSP,2013-05-10 05:56:00,
2013-05-09 23:01:00,67.3,46.8,30.12,SSW,202,0.0,0.0,48,0.00,,,0.00,WUHU21623XXSP,2013-05-10 06:01:00,
2013-05-09 23:06:00,67.5,46.4,30.12,SW,225,0.0,0.0,47,0.00,,,0.00,WUHU21623XXSP,2013-05-10 06:06:00,
2013-05-09 23:11:00,67.3,45.7,30.12,SW,225,0.0,0.0,46,0.00,,,0.00,WUHU21623XXSP,2013-05-10 06:11:00,
2013-05-09 23:16:00,67.3,45.7,30.13,SSW,202,0.0,0.0,46,0.00,,,0.00,WUHU21623XXSP,2013-05-10 06:16:00,
2013-05-09 23:21:00,67.6,45.3,30.13,SSW,202,0.0,2.7,45,0.00,,,0.00,WUHU21623XXSP,2013-05-10 06:21:00,
2013-05-09 23:26:00,67.8,45.5,30.13,SW,225,0.0,2.7,45,0.00,,,0.00,WUHU21623XXSP,2013-05-10 06:26:00,
2013-05-09 23:31:00,68.2,45.3,30.13,SSW,202,0.0,0.0,44,0.00,,,0.00,WUHU21623XXSP,2013-05-10 06:31:00,
2013-05-09 23:36:00,68.2,45.3,30.13,SSW,202,0.0,0.0,44,0.00,,,0.00,WUHU21623XXSP,2013-05-10 06:36:00,
2013-05-09 23:41:00,68.2,45.3,30.14,SW,225,3.1,3.1,44,0.00,,,0.00,WUHU21623XXSP,2013-05-10 06:41:00,
2013-05-09 23:46:00,68.0,44.5,30.14,SW,225,0.0,3.1,43,0.00,,,0.00,WUHU21623XXSP,2013-05-10 06:46:00,
2013-05-09 23:51:00,68.7,45.1,30.14,SW,225,6.0,6.0,43,0.00,,,0.00,WUHU21623XXSP,2013-05-10 06:51:00,
2013-05-09 23:56:00,69.3,45.6,30.14,SW,225,4.5,6.0,43,0.00,,,0.00,WUHU21623XXSP,2013-05-10 06:56:00,